createdAt,value
2019-04-07T00:00:01.353Z,8.78
2019-04-07T00:01:02.344Z,8.76
2019-04-07T00:02:01.607Z,8.75
2019-04-07T00:03:03.694Z,8.73
2019-04-07T00:04:02.939Z,8.71
2019-04-07T00:05:11.062Z,8.69
2019-04-07T00:06:04.368Z,8.67
2019-04-07T00:07:05.837Z,8.66
2019-04-07T00:08:06.772Z,8.64
2019-04-07T00:09:06.054Z,8.62
2019-04-07T00:10:06.354Z,8.60
2019-04-07T00:11:08.372Z,8.59
2019-04-07T00:12:07.454Z,8.58
2019-04-07T00:12:16.494Z,8.37
2019-04-07T00:13:18.414Z,8.36
2019-04-07T00:14:18.069Z,8.37
2019-04-07T00:15:18.493Z,8.37
2019-04-07T00:16:20.191Z,8.37
2019-04-07T00:17:19.689Z,8.36
2019-04-07T00:18:21.749Z,8.36
2019-04-07T00:19:20.886Z,8.36
2019-04-07T00:20:21.215Z,8.36
2019-04-07T00:21:22.812Z,8.36
2019-04-07T00:22:23.558Z,8.36
2019-04-07T00:23:24.117Z,8.36
2019-04-07T00:24:24.727Z,8.35
2019-04-07T00:25:25.225Z,8.35
2019-04-07T00:26:26.005Z,8.35
2019-04-07T00:27:25.746Z,8.35
2019-04-07T00:28:26.250Z,8.35
2019-04-07T00:29:28.047Z,8.35
2019-04-07T00:30:29.242Z,8.34
2019-04-07T00:31:28.069Z,8.34
2019-04-07T00:32:29.529Z,8.34
2019-04-07T00:33:30.224Z,8.35
2019-04-07T00:34:31.101Z,8.35
2019-04-07T00:35:32.563Z,8.36
2019-04-07T00:36:31.449Z,8.37
2019-04-07T00:37:33.666Z,8.38
2019-04-07T00:38:33.215Z,8.38
2019-04-07T00:39:33.580Z,8.39
2019-04-07T00:40:33.907Z,8.40
2019-04-07T00:41:35.505Z,8.40
2019-04-07T00:42:35.997Z,8.41
2019-04-07T00:43:36.628Z,8.41
2019-04-07T00:44:37.813Z,8.41
2019-04-07T00:45:37.012Z,8.42
2019-04-07T00:46:37.648Z,8.42
2019-04-07T00:47:39.254Z,8.42
2019-04-07T00:48:39.730Z,8.41
2019-04-07T00:49:40.208Z,8.41
2019-04-07T00:50:40.713Z,8.40
2019-04-07T00:51:42.091Z,8.40
2019-04-07T00:52:41.124Z,8.39
2019-04-07T00:53:42.924Z,8.39
2019-04-07T00:54:43.502Z,8.38
2019-04-07T00:55:44.047Z,8.37
2019-04-07T00:56:44.520Z,8.36
2019-04-07T00:57:45.620Z,8.35
2019-04-07T00:58:44.790Z,8.34
2019-04-07T00:59:47.310Z,8.33
2019-04-07T01:00:46.180Z,8.32
2019-04-07T01:01:47.635Z,8.30
2019-04-07T01:02:48.642Z,8.29
2019-04-07T01:03:48.147Z,8.27
2019-04-07T01:04:48.767Z,8.26
2019-04-07T01:05:51.072Z,8.24
2019-04-07T01:06:50.197Z,8.23
2019-04-07T01:07:52.166Z,8.22
2019-04-07T01:08:52.829Z,8.21
2019-04-07T01:09:53.326Z,8.20
2019-04-07T01:10:54.022Z,8.20
2019-04-07T01:11:02.564Z,8.06
2019-04-07T01:12:04.117Z,8.06
2019-04-07T01:13:03.786Z,8.06
2019-04-07T01:14:04.463Z,8.05
2019-04-07T01:15:06.294Z,8.05
2019-04-07T01:16:07.011Z,8.05
2019-04-07T01:17:07.113Z,8.05
2019-04-07T01:18:07.779Z,8.05
2019-04-07T01:19:07.925Z,8.05
2019-04-07T01:20:09.551Z,8.04
2019-04-07T01:21:10.132Z,8.04
2019-04-07T01:22:11.131Z,8.03
2019-04-07T01:23:10.631Z,8.03
2019-04-07T01:24:11.142Z,8.03
2019-04-07T01:25:13.017Z,8.02
2019-04-07T01:26:13.823Z,8.02
2019-04-07T01:27:13.226Z,8.02
2019-04-07T01:28:15.028Z,8.01
2019-04-07T01:29:15.668Z,8.01
2019-04-07T01:30:15.140Z,8.00
2019-04-07T01:31:16.660Z,8.00
2019-04-07T01:32:17.168Z,7.99
2019-04-07T01:33:17.425Z,7.99
2019-04-07T01:34:16.797Z,7.99
2019-04-07T01:35:18.324Z,7.98
2019-04-07T01:36:19.024Z,7.97
2019-04-07T01:37:19.743Z,7.96
2019-04-07T01:38:19.219Z,7.95
2019-04-07T01:39:20.825Z,7.95
2019-04-07T01:40:21.491Z,7.94
2019-04-07T01:41:21.954Z,7.93
2019-04-07T01:42:22.907Z,7.93
2019-04-07T01:43:22.694Z,7.92
2019-04-07T01:44:23.355Z,7.91
2019-04-07T01:45:23.762Z,7.90
2019-04-07T01:46:24.227Z,7.88
2019-04-07T01:47:24.731Z,7.87
2019-04-07T01:48:26.861Z,7.86
2019-04-07T01:49:26.048Z,7.85
2019-04-07T01:50:27.763Z,7.83
2019-04-07T01:51:28.289Z,7.82
2019-04-07T01:52:28.986Z,7.81
2019-04-07T01:53:30.259Z,7.80
2019-04-07T01:54:29.177Z,7.78
2019-04-07T01:55:31.065Z,7.77
2019-04-07T01:56:30.462Z,7.75
2019-04-07T01:57:31.045Z,7.73
2019-04-07T01:58:31.679Z,7.71
2019-04-07T01:59:31.965Z,7.70
2019-04-07T02:00:33.795Z,7.69
2019-04-07T02:01:32.896Z,7.68
2019-04-07T02:02:34.359Z,7.67
2019-04-07T02:03:35.700Z,7.66
2019-04-07T02:04:34.740Z,7.65
2019-04-07T02:05:35.294Z,7.64
2019-04-07T02:06:36.435Z,7.63
2019-04-07T02:07:37.434Z,7.62
2019-04-07T02:08:37.452Z,7.61
2019-04-07T02:09:37.827Z,7.59
2019-04-07T02:10:37.763Z,7.58
2019-04-07T02:11:38.597Z,7.57
2019-04-07T02:12:38.712Z,7.56
2019-04-07T02:13:40.453Z,7.54
2019-04-07T02:14:39.761Z,7.52
2019-04-07T02:15:41.460Z,7.51
2019-04-07T02:16:41.125Z,7.50
2019-04-07T02:17:41.619Z,7.49
2019-04-07T02:18:42.238Z,7.48
2019-04-07T02:19:43.733Z,7.47
2019-04-07T02:20:44.245Z,7.46
2019-04-07T02:21:44.980Z,7.45
2019-04-07T02:22:44.462Z,7.44
2019-04-07T02:22:53.981Z,7.28
2019-04-07T02:23:54.802Z,7.28
2019-04-07T02:24:54.591Z,7.28
2019-04-07T02:25:56.033Z,7.28
2019-04-07T02:26:56.548Z,7.27
2019-04-07T02:27:57.047Z,7.26
2019-04-07T02:28:57.512Z,7.25
2019-04-07T02:29:58.023Z,7.25
2019-04-07T02:30:58.966Z,7.24
2019-04-07T02:31:58.534Z,7.23
2019-04-07T02:32:58.641Z,7.22
2019-04-07T02:34:00.292Z,7.21
2019-04-07T02:35:01.519Z,7.20
2019-04-07T02:36:14.511Z,7.19
2019-04-07T02:37:00.835Z,7.18
2019-04-07T02:38:02.362Z,7.18
2019-04-07T02:39:02.776Z,7.17
2019-04-07T02:40:03.508Z,7.17
2019-04-07T02:41:02.688Z,7.16
2019-04-07T02:42:04.644Z,7.15
2019-04-07T02:43:03.724Z,7.15
2019-04-07T02:44:05.252Z,7.14
2019-04-07T02:45:05.805Z,7.14
2019-04-07T02:46:05.826Z,7.13
2019-04-07T02:47:06.500Z,7.12
2019-04-07T02:48:07.044Z,7.12
2019-04-07T02:49:08.190Z,7.11
2019-04-07T02:50:07.989Z,7.10
2019-04-07T02:51:09.696Z,7.10
2019-04-07T02:52:09.186Z,7.09
2019-04-07T02:53:11.020Z,7.09
2019-04-07T02:54:10.390Z,7.09
2019-04-07T02:55:12.022Z,7.09
2019-04-07T02:56:11.646Z,7.08
2019-04-07T02:57:13.272Z,7.08
2019-04-07T02:58:13.667Z,7.08
2019-04-07T02:59:14.412Z,7.08
2019-04-07T03:00:14.052Z,7.08
2019-04-07T03:01:14.425Z,7.07
2019-04-07T03:02:15.912Z,7.07
2019-04-07T03:03:17.152Z,7.06
2019-04-07T03:04:16.091Z,7.05
2019-04-07T03:05:16.513Z,7.04
2019-04-07T03:06:35.758Z,7.03
2019-04-07T03:07:17.723Z,7.02
2019-04-07T03:08:19.294Z,7.01
2019-04-07T03:09:20.488Z,7.00
2019-04-07T03:10:18.866Z,6.98
2019-04-07T03:11:21.220Z,6.97
2019-04-07T03:12:21.227Z,6.95
2019-04-07T03:13:21.210Z,6.94
2019-04-07T03:14:21.626Z,6.93
2019-04-07T03:15:22.669Z,6.92
2019-04-07T03:16:22.435Z,6.92
2019-04-07T03:17:23.374Z,6.92
2019-04-07T03:18:25.202Z,6.92
2019-04-07T03:19:24.019Z,6.92
2019-04-07T03:20:25.869Z,6.92
2019-04-07T03:21:26.802Z,6.91
2019-04-07T03:22:26.188Z,6.91
2019-04-07T03:23:26.772Z,6.90
2019-04-07T03:24:28.679Z,6.90
2019-04-07T03:25:28.125Z,6.89
2019-04-07T03:26:29.344Z,6.88
2019-04-07T03:27:29.117Z,6.87
2019-04-07T03:28:30.696Z,6.86
2019-04-07T03:29:31.099Z,6.86
2019-04-07T03:30:32.913Z,6.85
2019-04-07T03:31:32.338Z,6.84
2019-04-07T03:32:33.691Z,6.84
2019-04-07T03:33:35.121Z,6.83
2019-04-07T03:34:33.811Z,6.82
2019-04-07T03:35:34.811Z,6.81
2019-04-07T03:37:01.379Z,6.81
2019-04-07T03:37:42.802Z,6.79
2019-04-07T03:38:35.300Z,6.79
2019-04-07T03:39:35.569Z,6.77
2019-04-07T03:40:37.271Z,6.77
2019-04-07T03:41:38.605Z,6.76
2019-04-07T03:42:38.541Z,6.75
2019-04-07T03:43:38.256Z,6.74
2019-04-07T03:44:40.818Z,6.74
2019-04-07T03:45:39.470Z,6.73
2019-04-07T03:46:41.409Z,6.72
2019-04-07T03:47:41.756Z,6.71
2019-04-07T03:48:41.699Z,6.71
2019-04-07T03:49:41.983Z,6.71
2019-04-07T03:49:50.889Z,6.73
2019-04-07T03:50:51.288Z,6.73
2019-04-07T03:51:52.837Z,6.73
2019-04-07T03:52:54.370Z,6.74
2019-04-07T03:53:53.948Z,6.74
2019-04-07T03:54:54.587Z,6.73
2019-04-07T03:55:54.351Z,6.73
2019-04-07T03:56:56.527Z,6.73
2019-04-07T03:57:55.698Z,6.72
2019-04-07T03:58:57.879Z,6.71
2019-04-07T03:59:57.754Z,6.71
2019-04-07T04:00:57.191Z,6.70
2019-04-07T04:01:59.172Z,6.69
2019-04-07T04:02:59.241Z,6.69
2019-04-07T04:03:59.307Z,6.68
2019-04-07T04:05:00.880Z,6.67
2019-04-07T04:06:00.933Z,6.66
2019-04-07T04:07:18.023Z,6.65
2019-04-07T04:08:02.167Z,6.65
2019-04-07T04:09:02.375Z,6.64
2019-04-07T04:10:04.151Z,6.63
2019-04-07T04:11:04.219Z,6.62
2019-04-07T04:12:05.102Z,6.62
2019-04-07T04:13:05.311Z,6.61
2019-04-07T04:14:05.646Z,6.60
2019-04-07T04:15:07.159Z,6.60
2019-04-07T04:16:08.030Z,6.59
2019-04-07T04:17:07.173Z,6.58
2019-04-07T04:18:08.281Z,6.57
2019-04-07T04:19:08.727Z,6.56
2019-04-07T04:20:09.160Z,6.56
2019-04-07T04:21:09.641Z,6.56
2019-04-07T04:22:10.156Z,6.55
2019-04-07T04:23:11.611Z,6.55
2019-04-07T04:24:10.365Z,6.55
2019-04-07T04:25:10.913Z,6.55
2019-04-07T04:26:11.818Z,6.55
2019-04-07T04:27:13.382Z,6.55
2019-04-07T04:28:14.326Z,6.54
2019-04-07T04:29:13.322Z,6.54
2019-04-07T04:30:14.903Z,6.53
2019-04-07T04:31:15.529Z,6.52
2019-04-07T04:32:15.298Z,6.51
2019-04-07T04:33:15.946Z,6.50
2019-04-07T04:34:16.039Z,6.49
2019-04-07T04:35:17.694Z,6.48
2019-04-07T04:36:18.335Z,6.47
2019-04-07T04:37:34.352Z,6.46
2019-04-07T04:38:18.443Z,6.45
2019-04-07T04:39:21.114Z,6.45
2019-04-07T04:40:20.686Z,6.45
2019-04-07T04:41:20.920Z,6.45
2019-04-07T04:42:20.548Z,6.44
2019-04-07T04:43:21.024Z,6.44
2019-04-07T04:44:24.030Z,6.44
2019-04-07T04:45:22.459Z,6.45
2019-04-07T04:46:23.897Z,6.45
2019-04-07T04:47:23.712Z,6.45
2019-04-07T04:48:25.934Z,6.45
2019-04-07T04:49:25.278Z,6.44
2019-04-07T04:50:27.528Z,6.44
2019-04-07T04:51:26.607Z,6.43
2019-04-07T04:52:28.566Z,6.42
2019-04-07T04:53:30.692Z,6.41
2019-04-07T04:54:29.095Z,6.40
2019-04-07T04:55:29.751Z,6.40
2019-04-07T04:56:30.940Z,6.39
2019-04-07T04:57:31.893Z,6.38
2019-04-07T04:58:32.252Z,6.37
2019-04-07T04:59:33.282Z,6.36
2019-04-07T05:00:34.058Z,6.34
2019-04-07T05:01:34.406Z,6.33
2019-04-07T05:02:34.834Z,6.31
2019-04-07T05:03:36.183Z,6.30
2019-04-07T05:04:36.122Z,6.29
2019-04-07T05:05:38.064Z,6.28
2019-04-07T05:06:37.908Z,6.27
2019-04-07T05:07:50.759Z,6.26
2019-04-07T05:08:39.201Z,6.25
2019-04-07T05:09:46.119Z,6.23
2019-04-07T05:10:40.570Z,6.23
2019-04-07T05:11:40.815Z,6.22
2019-04-07T05:12:42.015Z,6.21
2019-04-07T05:13:42.177Z,6.20
2019-04-07T05:14:42.872Z,6.19
2019-04-07T05:15:43.435Z,6.19
2019-04-07T05:16:43.741Z,6.18
2019-04-07T05:16:52.463Z,6.18
2019-04-07T05:17:53.838Z,6.18
2019-04-07T05:18:54.106Z,6.18
2019-04-07T05:19:54.989Z,6.18
2019-04-07T05:20:55.339Z,6.19
2019-04-07T05:21:55.891Z,6.19
2019-04-07T05:22:56.481Z,6.19
2019-04-07T05:23:58.201Z,6.19
2019-04-07T05:24:58.771Z,6.19
2019-04-07T05:25:59.223Z,6.19
2019-04-07T05:26:58.554Z,6.19
2019-04-07T05:27:58.966Z,6.19
2019-04-07T05:29:01.422Z,6.19
2019-04-07T05:30:00.359Z,6.19
2019-04-07T05:31:02.404Z,6.19
2019-04-07T05:32:01.617Z,6.19
2019-04-07T05:33:03.603Z,6.18
2019-04-07T05:34:04.297Z,6.17
2019-04-07T05:35:05.902Z,6.17
2019-04-07T05:36:04.884Z,6.16
2019-04-07T05:37:05.516Z,6.16
2019-04-07T05:38:08.296Z,6.15
2019-04-07T05:39:06.696Z,6.15
2019-04-07T05:40:08.283Z,6.15
2019-04-07T05:41:09.129Z,6.14
2019-04-07T05:42:09.430Z,6.14
2019-04-07T05:43:10.700Z,6.14
2019-04-07T05:44:09.855Z,6.15
2019-04-07T05:45:11.557Z,6.15
2019-04-07T05:46:11.100Z,6.15
2019-04-07T05:47:14.399Z,6.15
2019-04-07T05:48:12.322Z,6.16
2019-04-07T05:49:16.258Z,6.16
2019-04-07T05:50:14.240Z,6.16
2019-04-07T05:51:14.384Z,6.17
2019-04-07T05:52:15.166Z,6.18
2019-04-07T05:53:17.056Z,6.19
2019-04-07T05:54:19.502Z,6.20
2019-04-07T05:55:20.655Z,6.21
2019-04-07T05:56:18.452Z,6.22
2019-04-07T05:57:18.677Z,6.23
2019-04-07T05:58:20.234Z,6.24
2019-04-07T05:59:21.090Z,6.25
2019-04-07T06:00:20.753Z,6.26
2019-04-07T06:01:23.409Z,6.28
2019-04-07T06:02:22.280Z,6.30
2019-04-07T06:03:22.804Z,6.31
2019-04-07T06:04:22.832Z,6.33
2019-04-07T06:05:24.649Z,6.35
2019-04-07T06:06:25.880Z,6.36
2019-04-07T06:07:28.793Z,6.38
2019-04-07T06:08:33.733Z,6.41
2019-04-07T06:09:26.438Z,6.43
2019-04-07T06:10:28.959Z,6.47
2019-04-07T06:11:31.179Z,6.52
2019-04-07T06:12:28.421Z,6.57
2019-04-07T06:13:29.145Z,6.64
2019-04-07T06:14:29.046Z,6.72
2019-04-07T06:15:31.263Z,6.82
2019-04-07T06:16:30.496Z,6.93
2019-04-07T06:17:30.471Z,7.06
2019-04-07T06:18:34.131Z,7.20
2019-04-07T06:19:31.599Z,7.36
2019-04-07T06:20:33.440Z,7.53
2019-04-07T06:21:32.416Z,7.71
2019-04-07T06:22:33.834Z,7.91
2019-04-07T06:23:33.611Z,8.11
2019-04-07T06:24:36.184Z,8.33
2019-04-07T06:25:40.906Z,8.57
2019-04-07T06:26:36.971Z,8.80
2019-04-07T06:27:36.098Z,9.04
2019-04-07T06:28:38.117Z,9.27
2019-04-07T06:29:37.781Z,9.52
2019-04-07T06:30:37.972Z,9.76
2019-04-07T06:31:39.075Z,9.99
2019-04-07T06:32:39.776Z,10.22
2019-04-07T06:33:40.480Z,10.46
2019-04-07T06:34:43.123Z,10.72
2019-04-07T06:35:43.799Z,10.94
2019-04-07T06:36:41.646Z,11.16
2019-04-07T06:37:43.206Z,11.38
2019-04-07T06:38:50.353Z,11.61
2019-04-07T06:39:44.042Z,11.86
2019-04-07T06:40:43.776Z,12.08
2019-04-07T06:40:56.479Z,15.24
2019-04-07T06:41:53.436Z,15.23
2019-04-07T06:42:53.441Z,15.26
2019-04-07T06:44:02.617Z,15.30
2019-04-07T06:44:55.320Z,15.34
2019-04-07T06:45:55.360Z,15.39
2019-04-07T06:46:59.112Z,15.46
2019-04-07T06:47:56.262Z,15.54
2019-04-07T06:48:56.586Z,15.61
2019-04-07T06:49:58.558Z,15.71
2019-04-07T06:50:59.744Z,15.79
2019-04-07T06:52:02.951Z,15.87
2019-04-07T06:52:59.147Z,15.95
2019-04-07T06:54:01.177Z,16.06
2019-04-07T06:55:00.542Z,16.14
2019-04-07T06:56:03.907Z,16.25
2019-04-07T06:57:05.113Z,16.37
2019-04-07T06:58:06.093Z,16.49
2019-04-07T06:59:03.556Z,16.62
2019-04-07T07:00:03.833Z,16.75
2019-04-07T07:01:05.832Z,16.86
2019-04-07T07:02:05.490Z,16.99
2019-04-07T07:03:06.157Z,17.12
2019-04-07T07:04:10.867Z,17.24
2019-04-07T07:05:07.103Z,17.37
2019-04-07T07:06:08.675Z,17.47
2019-04-07T07:07:09.838Z,17.58
2019-04-07T07:08:10.042Z,17.71
2019-04-07T07:09:10.365Z,17.82
2019-04-07T07:10:10.393Z,17.90
2019-04-07T07:11:10.584Z,18.02
2019-04-07T07:12:19.898Z,18.16
2019-04-07T07:13:20.698Z,18.31
2019-04-07T07:14:14.064Z,18.45
2019-04-07T07:15:12.845Z,18.54
2019-04-07T07:16:15.722Z,18.63
2019-04-07T07:17:18.041Z,18.76
2019-04-07T07:18:15.434Z,18.88
2019-04-07T07:19:15.300Z,18.98
2019-04-07T07:20:16.844Z,19.11
2019-04-07T07:21:17.781Z,19.20
2019-04-07T07:22:18.679Z,19.27
2019-04-07T07:23:19.162Z,19.38
2019-04-07T07:24:24.968Z,19.49
2019-04-07T07:25:20.385Z,19.59
2019-04-07T07:26:21.762Z,19.70
2019-04-07T07:27:20.776Z,19.78
2019-04-07T07:28:21.459Z,19.83
2019-04-07T07:29:23.783Z,19.90
2019-04-07T07:30:22.390Z,19.96
2019-04-07T07:31:25.486Z,20.04
2019-04-07T07:32:23.608Z,20.12
2019-04-07T07:33:25.159Z,20.18
2019-04-07T07:34:25.942Z,20.28
2019-04-07T07:35:27.211Z,20.41
2019-04-07T07:36:26.402Z,20.53
2019-04-07T07:37:28.002Z,20.65
2019-04-07T07:38:31.125Z,20.80
2019-04-07T07:39:28.402Z,20.93
2019-04-07T07:40:30.020Z,21.07
2019-04-07T07:41:29.807Z,21.16
2019-04-07T07:42:32.127Z,21.23
2019-04-07T07:43:31.902Z,21.31
2019-04-07T07:44:35.904Z,21.41
2019-04-07T07:45:32.997Z,21.48
2019-04-07T07:46:33.301Z,21.56
2019-04-07T07:47:33.774Z,21.62
2019-04-07T07:48:34.243Z,21.71
2019-04-07T07:49:39.902Z,21.82
2019-04-07T07:50:38.079Z,21.88
2019-04-07T07:51:38.425Z,21.96
2019-04-07T07:52:36.438Z,22.02
2019-04-07T07:53:38.345Z,22.11
2019-04-07T07:54:37.722Z,22.17
2019-04-07T07:55:40.186Z,22.21
2019-04-07T07:56:42.211Z,22.25
2019-04-07T07:57:40.466Z,22.25
2019-04-07T07:58:40.704Z,22.27
2019-04-07T07:59:42.060Z,22.29
2019-04-07T08:00:43.365Z,22.32
2019-04-07T08:01:46.189Z,22.35
2019-04-07T08:02:44.291Z,22.35
2019-04-07T08:03:44.413Z,22.37
2019-04-07T08:04:44.983Z,22.38
2019-04-07T08:05:46.614Z,22.40
2019-04-07T08:06:46.137Z,22.43
2019-04-07T08:07:48.981Z,22.46
2019-04-07T08:08:48.441Z,22.46
2019-04-07T08:09:48.130Z,22.44
2019-04-07T08:10:50.685Z,22.42
2019-04-07T08:11:50.168Z,22.42
2019-04-07T08:12:50.825Z,22.40
2019-04-07T08:13:51.290Z,22.38
2019-04-07T08:14:55.230Z,22.33
2019-04-07T08:15:51.938Z,22.29
2019-04-07T08:16:54.395Z,22.26
2019-04-07T08:17:53.458Z,22.24
2019-04-07T08:18:54.003Z,22.21
2019-04-07T08:19:55.706Z,22.19
2019-04-07T08:20:55.130Z,22.17
2019-04-07T08:21:05.577Z,21.64
2019-04-07T08:22:07.704Z,21.64
2019-04-07T08:23:06.876Z,21.67
2019-04-07T08:24:08.057Z,21.68
2019-04-07T08:25:08.700Z,21.68
2019-04-07T08:26:09.427Z,21.67
2019-04-07T08:27:09.231Z,21.64
2019-04-07T08:28:10.948Z,21.62
2019-04-07T08:29:12.958Z,21.58
2019-04-07T08:30:13.699Z,21.54
2019-04-07T08:31:12.224Z,21.51
2019-04-07T08:32:14.031Z,21.46
2019-04-07T08:33:14.738Z,21.38
2019-04-07T08:34:14.338Z,21.29
2019-04-07T08:35:15.375Z,21.20
2019-04-07T08:36:15.324Z,21.12
2019-04-07T08:37:16.889Z,21.04
2019-04-07T08:38:19.875Z,20.96
2019-04-07T08:39:22.715Z,20.88
2019-04-07T08:40:18.746Z,20.80
2019-04-07T08:41:19.002Z,20.72
2019-04-07T08:42:19.827Z,20.65
2019-04-07T08:43:22.549Z,20.58
2019-04-07T08:44:20.532Z,20.53
2019-04-07T08:45:21.297Z,20.49
2019-04-07T08:46:22.983Z,20.45
2019-04-07T08:47:23.366Z,20.41
2019-04-07T08:48:23.137Z,20.39
2019-04-07T08:49:25.612Z,20.36
2019-04-07T08:50:27.651Z,20.32
2019-04-07T08:51:29.345Z,20.28
2019-04-07T08:52:26.033Z,20.25
2019-04-07T08:53:26.197Z,20.21
2019-04-07T08:54:28.558Z,20.18
2019-04-07T08:55:28.244Z,20.15
2019-04-07T08:56:29.008Z,20.12
2019-04-07T08:57:30.556Z,20.11
2019-04-07T08:58:33.166Z,20.11
2019-04-07T08:59:30.332Z,20.10
2019-04-07T09:00:31.612Z,20.11
2019-04-07T09:01:31.741Z,20.11
2019-04-07T09:02:32.260Z,20.13
2019-04-07T09:03:33.174Z,20.13
2019-04-07T09:04:33.239Z,20.14
2019-04-07T09:05:35.450Z,20.15
2019-04-07T09:06:34.537Z,20.13
2019-04-07T09:07:35.073Z,20.08
2019-04-07T09:08:37.934Z,20.02
2019-04-07T09:09:40.373Z,19.96
2019-04-07T09:10:37.220Z,19.91
2019-04-07T09:11:40.351Z,19.87
2019-04-07T09:12:39.223Z,19.78
2019-04-07T09:13:39.571Z,19.67
2019-04-07T09:14:40.873Z,19.56
2019-04-07T09:15:43.580Z,19.45
2019-04-07T09:16:41.663Z,19.37
2019-04-07T09:17:45.780Z,19.30
2019-04-07T09:18:51.678Z,19.24
2019-04-07T09:19:44.199Z,19.18
2019-04-07T09:20:47.045Z,19.12
2019-04-07T09:21:47.553Z,19.08
2019-04-07T09:22:44.820Z,19.05
2019-04-07T09:23:46.821Z,19.02
2019-04-07T09:24:46.161Z,19.01
2019-04-07T09:25:46.803Z,19.01
2019-04-07T09:26:47.310Z,19.01
2019-04-07T09:27:50.226Z,19.02
2019-04-07T09:28:48.724Z,19.02
2019-04-07T09:29:49.166Z,19.02
2019-04-07T09:30:50.791Z,19.03
2019-04-07T09:31:51.858Z,19.03
2019-04-07T09:32:51.188Z,19.03
2019-04-07T09:33:52.860Z,19.04
2019-04-07T09:34:53.963Z,19.05
2019-04-07T09:35:56.653Z,19.07
2019-04-07T09:36:53.508Z,19.08
2019-04-07T09:37:55.894Z,19.10
2019-04-07T09:39:00.189Z,19.13
2019-04-07T09:39:59.711Z,19.14
2019-04-07T09:40:56.004Z,19.15
2019-04-07T09:41:57.219Z,19.18
2019-04-07T09:42:59.999Z,19.19
2019-04-07T09:44:01.157Z,19.20
2019-04-07T09:44:58.650Z,19.22
2019-04-07T09:46:00.329Z,19.23
2019-04-07T09:47:02.066Z,19.25
2019-04-07T09:48:02.165Z,19.26
2019-04-07T09:49:02.022Z,19.26
2019-04-07T09:50:02.870Z,19.27
2019-04-07T09:51:06.893Z,19.27
2019-04-07T09:52:03.477Z,19.27
2019-04-07T09:53:05.048Z,19.26
2019-04-07T09:54:05.618Z,19.24
2019-04-07T09:55:07.612Z,19.23
2019-04-07T09:56:08.826Z,19.23
2019-04-07T09:57:07.398Z,19.23
2019-04-07T09:58:09.334Z,19.23
2019-04-07T09:59:07.879Z,19.23
2019-04-07T10:00:08.731Z,19.24
2019-04-07T10:01:09.127Z,19.26
2019-04-07T10:02:10.374Z,19.27
2019-04-07T10:03:13.672Z,19.27
2019-04-07T10:04:12.138Z,19.27
2019-04-07T10:05:12.233Z,19.27
2019-04-07T10:06:13.289Z,19.26
2019-04-07T10:07:15.986Z,19.26
2019-04-07T10:08:13.885Z,19.27
2019-04-07T10:09:14.543Z,19.27
2019-04-07T10:10:14.960Z,19.27
2019-04-07T10:10:23.791Z,19.40
2019-04-07T10:11:23.820Z,19.40
2019-04-07T10:12:25.187Z,19.40
2019-04-07T10:13:25.435Z,19.40
2019-04-07T10:14:26.157Z,19.39
2019-04-07T10:15:27.902Z,19.38
2019-04-07T10:16:28.484Z,19.37
2019-04-07T10:17:28.965Z,19.36
2019-04-07T10:18:29.935Z,19.35
2019-04-07T10:19:30.079Z,19.33
2019-04-07T10:20:30.333Z,19.31
2019-04-07T10:21:32.426Z,19.30
2019-04-07T10:22:32.072Z,19.30
2019-04-07T10:23:32.448Z,19.31
2019-04-07T10:24:32.805Z,19.32
2019-04-07T10:25:34.431Z,19.33
2019-04-07T10:26:33.998Z,19.36
2019-04-07T10:27:35.813Z,19.38
2019-04-07T10:28:36.653Z,19.41
2019-04-07T10:29:36.069Z,19.44
2019-04-07T10:30:37.019Z,19.46
2019-04-07T10:31:36.750Z,19.49
2019-04-07T10:32:38.492Z,19.53
2019-04-07T10:33:38.260Z,19.55
2019-04-07T10:34:40.746Z,19.58
2019-04-07T10:35:39.864Z,19.60
2019-04-07T10:36:42.344Z,19.62
2019-04-07T10:37:41.536Z,19.64
2019-04-07T10:38:42.542Z,19.66
2019-04-07T10:39:42.332Z,19.68
2019-04-07T10:40:43.954Z,19.70
2019-04-07T10:41:45.235Z,19.70
2019-04-07T10:42:44.803Z,19.71
2019-04-07T10:43:45.287Z,19.72
2019-04-07T10:44:45.247Z,19.73
2019-04-07T10:45:46.618Z,19.74
2019-04-07T10:46:47.881Z,19.74
2019-04-07T10:47:47.335Z,19.73
2019-04-07T10:48:48.747Z,19.72
2019-04-07T10:49:57.915Z,19.70
2019-04-07T10:50:49.244Z,19.69
2019-04-07T10:51:49.122Z,19.67
2019-04-07T10:52:51.420Z,19.66
2019-04-07T10:53:51.089Z,19.65
2019-04-07T10:54:50.588Z,19.65
2019-04-07T10:55:52.153Z,19.64
2019-04-07T10:56:51.861Z,19.64
2019-04-07T10:57:52.472Z,19.63
2019-04-07T10:58:53.925Z,19.63
2019-04-07T10:59:53.892Z,19.62
2019-04-07T11:00:55.679Z,19.61
2019-04-07T11:01:56.708Z,19.61
2019-04-07T11:02:57.205Z,19.62
2019-04-07T11:03:57.659Z,19.64
2019-04-07T11:04:57.802Z,19.66
2019-04-07T11:05:59.414Z,19.68
2019-04-07T11:06:59.034Z,19.69
2019-04-07T11:07:59.076Z,19.70
2019-04-07T11:09:00.867Z,19.72
2019-04-07T11:10:01.569Z,19.74
2019-04-07T11:11:02.352Z,19.75
2019-04-07T11:12:03.263Z,19.77
2019-04-07T11:13:03.118Z,19.78
2019-04-07T11:14:03.168Z,19.79
2019-04-07T11:15:04.671Z,19.80
2019-04-07T11:16:04.947Z,19.81
2019-04-07T11:17:04.855Z,19.81
2019-04-07T11:18:05.347Z,19.81
2019-04-07T11:19:06.914Z,19.81
2019-04-07T11:20:08.148Z,19.83
2019-04-07T11:21:07.203Z,19.84
2019-04-07T11:22:08.771Z,19.85
2019-04-07T11:23:09.754Z,19.86
2019-04-07T11:24:09.002Z,19.87
2019-04-07T11:25:10.834Z,19.89
2019-04-07T11:26:10.121Z,19.90
2019-04-07T11:27:13.026Z,19.92
2019-04-07T11:28:12.266Z,19.93
2019-04-07T11:29:12.201Z,19.94
2019-04-07T11:30:13.874Z,19.95
2019-04-07T11:31:13.581Z,19.95
2019-04-07T11:31:22.115Z,20.01
2019-04-07T11:32:24.205Z,20.01
2019-04-07T11:33:24.504Z,20.01
2019-04-07T11:34:24.255Z,20.01
2019-04-07T11:35:28.682Z,20.01
2019-04-07T11:36:25.566Z,20.01
2019-04-07T11:37:26.482Z,20.01
2019-04-07T11:38:26.770Z,20.01
2019-04-07T11:39:27.470Z,20.01
2019-04-07T11:40:28.153Z,20.00
2019-04-07T11:41:29.010Z,19.98
2019-04-07T11:42:30.697Z,19.97
2019-04-07T11:43:30.480Z,19.95
2019-04-07T11:44:31.270Z,19.94
2019-04-07T11:45:31.451Z,19.94
2019-04-07T11:46:34.029Z,19.93
2019-04-07T11:47:32.954Z,19.94
2019-04-07T11:48:33.361Z,19.94
2019-04-07T11:49:35.709Z,19.94
2019-04-07T11:50:34.755Z,19.95
2019-04-07T11:51:36.868Z,19.96
2019-04-07T11:52:36.570Z,19.97
2019-04-07T11:53:37.055Z,19.97
2019-04-07T11:54:38.601Z,19.97
2019-04-07T11:55:39.258Z,19.98
2019-04-07T11:56:40.183Z,19.98
2019-04-07T11:57:43.349Z,19.98
2019-04-07T11:58:40.843Z,19.97
2019-04-07T11:59:41.276Z,19.96
2019-04-07T12:00:42.039Z,19.97
2019-04-07T12:01:46.084Z,19.97
2019-04-07T12:02:44.191Z,19.97
2019-04-07T12:03:43.824Z,19.97
2019-04-07T12:04:45.385Z,19.97
2019-04-07T12:05:46.116Z,19.97
2019-04-07T12:06:48.157Z,19.98
2019-04-07T12:07:45.841Z,19.99
2019-04-07T12:08:46.760Z,20.00
2019-04-07T12:09:47.712Z,20.01
2019-04-07T12:10:56.170Z,20.00
2019-04-07T12:11:48.400Z,20.00
2019-04-07T12:12:49.988Z,20.00
2019-04-07T12:13:50.965Z,19.99
2019-04-07T12:14:52.465Z,19.98
2019-04-07T12:15:50.982Z,19.98
2019-04-07T12:16:53.467Z,19.98
2019-04-07T12:17:52.451Z,19.97
2019-04-07T12:18:53.720Z,19.96
2019-04-07T12:19:56.534Z,19.95
2019-04-07T12:20:54.686Z,19.95
2019-04-07T12:21:56.444Z,19.93
2019-04-07T12:22:56.985Z,19.91
2019-04-07T12:23:58.317Z,19.89
2019-04-07T12:25:00.697Z,19.88
2019-04-07T12:25:57.909Z,19.87
2019-04-07T12:27:01.037Z,19.86
2019-04-07T12:28:00.105Z,19.86
2019-04-07T12:29:00.485Z,19.87
2019-04-07T12:30:01.240Z,19.87
2019-04-07T12:31:02.030Z,19.88
2019-04-07T12:32:02.486Z,19.89
2019-04-07T12:33:04.992Z,19.90
2019-04-07T12:34:03.900Z,19.91
2019-04-07T12:35:04.222Z,19.92
2019-04-07T12:36:05.148Z,19.93
2019-04-07T12:37:06.862Z,19.93
2019-04-07T12:38:10.099Z,19.93
2019-04-07T12:39:07.145Z,19.93
2019-04-07T12:40:07.602Z,19.92
2019-04-07T12:41:15.035Z,19.92
2019-04-07T12:42:08.528Z,19.93
2019-04-07T12:43:12.124Z,19.93
2019-04-07T12:44:08.617Z,19.93
2019-04-07T12:45:11.178Z,19.93
2019-04-07T12:46:10.145Z,19.94
2019-04-07T12:47:11.358Z,19.95
2019-04-07T12:48:11.319Z,19.96
2019-04-07T12:49:12.214Z,19.97
2019-04-07T12:50:14.716Z,19.98
2019-04-07T12:51:13.691Z,19.99
2019-04-07T12:52:14.025Z,20.00
2019-04-07T12:53:15.764Z,20.02
2019-04-07T12:54:15.712Z,20.03
2019-04-07T12:55:17.936Z,20.03
2019-04-07T12:56:16.998Z,20.04
2019-04-07T12:57:17.408Z,20.05
2019-04-07T12:58:19.255Z,20.07
2019-04-07T12:59:19.277Z,20.08
2019-04-07T13:00:22.706Z,20.08
2019-04-07T13:01:21.083Z,20.09
2019-04-07T13:02:21.389Z,20.11
2019-04-07T13:03:22.344Z,20.12
2019-04-07T13:04:22.118Z,20.12
2019-04-07T13:05:24.139Z,20.12